createdAt,value
2022-12-20T00:01:09.926Z,-0.10
2022-12-20T00:03:36.852Z,0.00
2022-12-20T00:06:03.767Z,0.00
2022-12-20T00:08:31.156Z,-0.40
2022-12-20T00:11:01.785Z,0.10
2022-12-20T00:13:31.960Z,0.30
2022-12-20T00:16:08.921Z,0.30
2022-12-20T00:18:36.831Z,0.50
2022-12-20T00:21:05.457Z,0.30
2022-12-20T00:23:32.815Z,0.30
2022-12-20T00:26:08.174Z,0.50
2022-12-20T00:28:36.043Z,0.40
2022-12-20T00:31:04.206Z,0.60
2022-12-20T00:33:31.009Z,0.60
2022-12-20T00:35:57.811Z,0.60
2022-12-20T00:38:25.749Z,0.70
2022-12-20T00:41:11.284Z,0.70
2022-12-20T00:43:39.637Z,0.70
2022-12-20T00:46:08.124Z,0.90
2022-12-20T00:48:35.365Z,1.00
2022-12-20T00:51:04.979Z,1.00
2022-12-20T00:53:32.275Z,1.00
2022-12-20T00:55:59.699Z,1.00
2022-12-20T00:58:26.898Z,1.20
2022-12-20T01:00:56.731Z,1.20
2022-12-20T01:03:25.021Z,1.00
2022-12-20T01:05:53.594Z,1.30
2022-12-20T01:08:21.530Z,1.20
2022-12-20T01:10:58.053Z,1.20
2022-12-20T01:15:51.887Z,1.10
2022-12-20T01:18:18.597Z,1.40
2022-12-20T01:20:47.398Z,1.30
2022-12-20T01:23:14.099Z,1.30
2022-12-20T01:25:40.784Z,1.40
2022-12-20T01:28:07.400Z,1.40
2022-12-20T01:30:34.092Z,1.00
2022-12-20T01:33:00.730Z,0.90
2022-12-20T01:35:27.405Z,0.90
2022-12-20T01:37:54.085Z,0.90
2022-12-20T01:40:20.681Z,0.70
2022-12-20T01:45:25.359Z,0.70
2022-12-20T01:47:52.341Z,0.70
2022-12-20T01:50:19.152Z,0.80
2022-12-20T01:52:47.827Z,0.60
2022-12-20T01:55:19.943Z,0.80
2022-12-20T01:57:49.203Z,0.40
2022-12-20T02:00:17.058Z,0.40
2022-12-20T02:02:47.580Z,0.40
2022-12-20T02:05:16.008Z,0.40
2022-12-20T02:07:46.045Z,0.30
2022-12-20T02:10:13.131Z,0.20
2022-12-20T02:12:42.663Z,0.40
2022-12-20T02:15:31.066Z,0.60
2022-12-20T02:18:19.776Z,0.30
2022-12-20T02:20:56.292Z,0.40
2022-12-20T02:23:53.667Z,0.40
2022-12-20T02:29:10.709Z,0.70
2022-12-20T02:31:44.340Z,0.80
2022-12-20T02:34:12.532Z,0.90
2022-12-20T02:36:39.690Z,0.80
2022-12-20T02:39:06.514Z,0.90
2022-12-20T02:41:39.311Z,0.90
2022-12-20T02:44:32.100Z,0.90
2022-12-20T02:47:01.646Z,1.10
2022-12-20T02:49:32.508Z,1.00
2022-12-20T02:52:00.678Z,1.00
2022-12-20T02:54:28.956Z,0.90
2022-12-20T02:57:03.260Z,0.90
2022-12-20T02:59:36.388Z,1.00
2022-12-20T03:02:03.984Z,1.00
2022-12-20T03:04:35.069Z,0.90
2022-12-20T03:07:04.191Z,0.90
2022-12-20T03:09:32.925Z,0.90
2022-12-20T03:12:00.177Z,0.80
2022-12-20T03:14:27.021Z,0.80
2022-12-20T03:16:56.011Z,0.90
2022-12-20T03:19:22.818Z,1.00
2022-12-20T03:21:49.457Z,0.90
2022-12-20T03:26:43.771Z,1.00
2022-12-20T03:29:10.506Z,1.00
2022-12-20T03:31:37.724Z,1.00
2022-12-20T03:34:05.379Z,0.90
2022-12-20T03:36:32.125Z,1.40
2022-12-20T03:38:59.111Z,1.60
2022-12-20T03:41:27.313Z,1.10
2022-12-20T03:43:54.159Z,1.20
2022-12-20T03:46:20.923Z,1.20
2022-12-20T03:48:47.593Z,1.10
2022-12-20T03:51:14.286Z,1.30
2022-12-20T03:53:40.921Z,1.20
2022-12-20T03:56:07.699Z,1.20
2022-12-20T03:58:34.441Z,1.40
2022-12-20T04:01:01.509Z,1.20
2022-12-20T04:03:28.187Z,1.30
2022-12-20T04:05:55.952Z,1.30
2022-12-20T04:08:22.701Z,1.00
2022-12-20T04:11:09.312Z,1.00
2022-12-20T04:13:35.992Z,0.90
2022-12-20T04:16:02.787Z,1.00
2022-12-20T04:18:29.462Z,0.90
2022-12-20T04:20:56.402Z,0.90
2022-12-20T04:23:23.053Z,0.90
2022-12-20T04:25:49.759Z,1.20
2022-12-20T04:28:16.634Z,1.00
2022-12-20T04:30:43.259Z,0.90
2022-12-20T04:33:10.102Z,1.00
2022-12-20T04:35:38.213Z,0.90
2022-12-20T04:38:05.040Z,1.20
2022-12-20T04:40:31.723Z,1.10
2022-12-20T04:42:58.413Z,1.30
2022-12-20T04:45:25.097Z,1.10
2022-12-20T04:47:51.778Z,1.10
2022-12-20T04:50:19.097Z,1.10
2022-12-20T04:53:05.908Z,1.00
2022-12-20T04:55:38.174Z,1.10
2022-12-20T04:58:07.641Z,1.30
2022-12-20T05:00:34.807Z,1.10
2022-12-20T05:03:01.734Z,1.10
2022-12-20T05:05:28.986Z,0.80
2022-12-20T05:07:56.342Z,0.90
2022-12-20T05:10:23.273Z,0.80
2022-12-20T05:12:50.140Z,0.90
2022-12-20T05:15:16.926Z,0.80
2022-12-20T05:17:43.681Z,0.60
2022-12-20T05:20:11.056Z,0.70
2022-12-20T05:22:57.609Z,0.60
2022-12-20T05:25:44.221Z,0.60
2022-12-20T05:28:10.952Z,0.60
2022-12-20T05:30:37.665Z,0.80
2022-12-20T05:33:04.398Z,0.80
2022-12-20T05:35:31.129Z,0.80
2022-12-20T05:37:58.005Z,1.00
2022-12-20T05:40:24.711Z,0.80
2022-12-20T05:42:51.379Z,1.00
2022-12-20T05:45:18.073Z,1.00
2022-12-20T05:47:45.160Z,1.30
2022-12-20T05:50:18.389Z,1.40
2022-12-20T05:52:45.776Z,1.30
2022-12-20T05:55:12.423Z,1.20
2022-12-20T05:57:39.048Z,1.10
2022-12-20T06:00:06.734Z,1.30
2022-12-20T06:02:33.685Z,1.40
2022-12-20T06:05:00.451Z,1.50
2022-12-20T06:07:29.007Z,1.40
2022-12-20T06:09:56.527Z,1.70
2022-12-20T06:12:23.526Z,1.50
2022-12-20T06:14:51.165Z,1.20
2022-12-20T06:17:20.052Z,1.50
2022-12-20T06:19:46.897Z,1.50
2022-12-20T06:22:13.909Z,1.60
2022-12-20T06:24:47.678Z,1.50
2022-12-20T06:27:15.107Z,2.00
2022-12-20T06:29:41.833Z,1.50
2022-12-20T06:34:35.730Z,1.50
2022-12-20T06:37:02.457Z,1.60
2022-12-20T06:39:29.165Z,1.70
2022-12-20T06:41:55.860Z,1.70
2022-12-20T06:44:22.523Z,1.90
2022-12-20T06:46:49.180Z,1.80
2022-12-20T06:49:15.855Z,1.90
2022-12-20T06:51:42.862Z,1.80
2022-12-20T06:54:09.539Z,2.20
2022-12-20T06:56:40.978Z,1.80
2022-12-20T06:59:08.065Z,1.90
2022-12-20T07:01:34.968Z,1.90
2022-12-20T07:04:01.757Z,1.80
2022-12-20T07:06:29.401Z,2.20
2022-12-20T07:08:56.451Z,1.90
2022-12-20T07:11:23.229Z,1.90
2022-12-20T07:13:50.245Z,1.90
2022-12-20T07:16:16.956Z,1.80
2022-12-20T07:18:43.720Z,1.80
2022-12-20T07:21:10.392Z,1.90
2022-12-20T07:23:37.115Z,2.00
2022-12-20T07:26:03.932Z,1.90
2022-12-20T07:28:30.803Z,2.00
2022-12-20T07:33:28.697Z,2.10
2022-12-20T07:36:04.553Z,2.10
2022-12-20T07:38:31.654Z,2.10
2022-12-20T07:40:58.530Z,2.10
2022-12-20T07:43:25.422Z,2.10
2022-12-20T07:45:56.836Z,2.10
2022-12-20T07:48:24.378Z,2.30
2022-12-20T07:50:54.178Z,2.10
2022-12-20T07:53:23.457Z,2.20
2022-12-20T07:55:50.332Z,2.20
2022-12-20T07:58:18.754Z,2.30
2022-12-20T08:00:45.972Z,2.20
2022-12-20T08:03:19.980Z,2.20
2022-12-20T08:05:51.281Z,2.30
2022-12-20T08:08:19.866Z,2.30
2022-12-20T08:10:47.218Z,2.40
2022-12-20T08:13:14.237Z,2.30
2022-12-20T08:15:41.229Z,2.40
2022-12-20T08:18:07.952Z,2.60
2022-12-20T08:20:34.627Z,2.60
2022-12-20T08:23:04.237Z,2.80
2022-12-20T08:25:34.707Z,2.80
2022-12-20T08:28:06.043Z,2.90
2022-12-20T08:30:32.794Z,3.00
2022-12-20T08:32:59.507Z,3.30
2022-12-20T08:35:26.288Z,3.10
2022-12-20T08:37:53.362Z,3.40
2022-12-20T08:40:20.861Z,3.60
2022-12-20T08:42:47.549Z,3.40
2022-12-20T08:45:15.204Z,2.70
2022-12-20T08:47:41.997Z,3.90
2022-12-20T08:50:08.955Z,4.00
2022-12-20T08:52:35.657Z,3.80
2022-12-20T08:55:04.326Z,3.70
2022-12-20T08:57:32.314Z,4.10
2022-12-20T08:59:59.033Z,3.90
2022-12-20T09:02:26.716Z,4.40
2022-12-20T09:04:53.481Z,4.00
2022-12-20T09:07:20.156Z,4.10
2022-12-20T09:09:47.525Z,4.50
2022-12-20T09:12:14.390Z,4.40
2022-12-20T09:14:41.586Z,4.80
2022-12-20T09:17:08.238Z,4.80
2022-12-20T09:19:34.879Z,4.60
2022-12-20T09:22:01.582Z,4.40
2022-12-20T09:24:28.187Z,4.70
2022-12-20T09:26:54.863Z,4.70
2022-12-20T09:29:28.243Z,4.70
2022-12-20T09:32:01.352Z,4.60
2022-12-20T09:34:28.012Z,4.60
2022-12-20T09:36:55.120Z,4.70
2022-12-20T09:49:28.521Z,4.60
2022-12-20T09:52:25.135Z,4.70
2022-12-20T09:55:22.657Z,4.70
2022-12-20T09:57:56.446Z,4.70
2022-12-20T10:00:23.567Z,4.60
2022-12-20T10:03:06.413Z,4.60
2022-12-20T10:05:46.162Z,4.50
2022-12-20T10:08:22.489Z,4.60
2022-12-20T10:10:54.215Z,4.50
2022-12-20T10:13:49.032Z,4.60
2022-12-20T10:16:33.654Z,4.50
2022-12-20T10:19:40.245Z,4.90
2022-12-20T10:22:30.535Z,5.00
2022-12-20T10:25:32.254Z,5.50
2022-12-20T10:28:02.798Z,5.20
2022-12-20T10:30:31.876Z,5.40
2022-12-20T10:32:59.301Z,5.60
2022-12-20T10:35:29.076Z,5.40
2022-12-20T10:38:08.289Z,5.80
2022-12-20T10:41:20.193Z,5.70
2022-12-20T10:43:25.767Z,5.80
2022-12-20T10:46:00.239Z,5.80
2022-12-20T10:48:31.886Z,5.90
2022-12-20T10:51:04.322Z,5.70
2022-12-20T10:53:32.254Z,6.00
2022-12-20T10:56:21.134Z,5.70
2022-12-20T10:58:58.001Z,6.00
2022-12-20T11:01:31.286Z,6.10
2022-12-20T11:04:03.070Z,5.80
2022-12-20T11:06:42.931Z,6.00
2022-12-20T11:09:21.389Z,5.80
2022-12-20T11:12:05.859Z,5.90
2022-12-20T11:14:39.198Z,6.20
2022-12-20T11:17:21.259Z,6.40
2022-12-20T11:20:05.334Z,6.60
2022-12-20T11:25:39.129Z,6.60
2022-12-20T11:28:25.231Z,6.40
2022-12-20T11:31:12.870Z,6.40
2022-12-20T11:36:30.034Z,6.10
2022-12-20T11:39:29.608Z,6.30
2022-12-20T11:47:43.972Z,5.80
2022-12-20T11:50:33.864Z,6.00
2022-12-20T11:53:05.512Z,5.80
2022-12-20T11:55:36.077Z,5.70
2022-12-20T11:58:20.925Z,5.70
2022-12-20T12:00:54.788Z,5.80
2022-12-20T12:03:27.253Z,5.70
2022-12-20T12:05:59.346Z,6.00
2022-12-20T12:08:49.944Z,5.80
2022-12-20T12:12:04.518Z,6.20
2022-12-20T12:14:22.783Z,6.30
2022-12-20T12:16:54.358Z,6.50
2022-12-20T12:19:23.976Z,6.80
2022-12-20T12:21:57.119Z,6.90
2022-12-20T12:24:30.245Z,7.10
2022-12-20T12:26:59.667Z,7.50
2022-12-20T12:29:29.579Z,7.60
2022-12-20T12:32:04.552Z,8.10
2022-12-20T12:35:05.459Z,7.80
2022-12-20T12:37:42.725Z,7.70
2022-12-20T12:40:36.379Z,7.70
2022-12-20T12:45:55.768Z,7.30
2022-12-20T12:48:35.001Z,7.30
2022-12-20T12:51:02.717Z,7.60
2022-12-20T12:53:37.638Z,7.40
2022-12-20T12:56:45.213Z,7.10
2022-12-20T12:59:12.622Z,7.00
2022-12-20T13:01:51.930Z,6.80
2022-12-20T13:04:19.684Z,6.60
2022-12-20T13:06:47.387Z,6.50
2022-12-20T13:09:28.905Z,6.40
2022-12-20T13:12:02.232Z,6.40
2022-12-20T13:14:31.060Z,6.40
2022-12-20T13:17:22.391Z,6.30
2022-12-20T13:19:52.244Z,6.20
2022-12-20T13:22:22.260Z,6.50
2022-12-20T13:24:58.431Z,6.40
2022-12-20T13:27:28.185Z,6.30
2022-12-20T13:30:07.145Z,5.90
2022-12-20T16:53:27.433Z,2.80
2022-12-20T16:55:54.078Z,2.70
2022-12-20T18:37:26.830Z,2.80
2022-12-20T19:14:24.073Z,2.80
2022-12-20T19:36:39.831Z,3.50
2022-12-20T21:32:51.378Z,3.40
2022-12-20T22:53:54.449Z,3.30
